createdAt,value
2019-02-06T00:00:26.742Z,79.38
2019-02-06T00:01:26.524Z,79.66
2019-02-06T00:02:25.956Z,79.63
2019-02-06T00:03:26.121Z,79.76
2019-02-06T00:04:25.816Z,80.06
2019-02-06T00:05:25.691Z,80.03
2019-02-06T00:06:25.845Z,79.73
2019-02-06T00:07:25.759Z,79.9
2019-02-06T00:08:26.367Z,79.67
2019-02-06T00:09:26.062Z,79.35
2019-02-06T00:10:26.171Z,79.73
2019-02-06T00:11:25.550Z,79.46
2019-02-06T00:12:25.905Z,79.31
2019-02-06T00:13:26.010Z,79.52
2019-02-06T00:14:25.995Z,79.56
2019-02-06T00:15:26.306Z,79.63
2019-02-06T00:16:25.680Z,79.27
2019-02-06T00:17:26.237Z,79.28
2019-02-06T00:18:26.046Z,79.16
2019-02-06T00:19:25.676Z,79.26
2019-02-06T00:20:26.035Z,79.24
2019-02-06T00:21:25.909Z,79.12
2019-02-06T00:22:25.943Z,78.97
2019-02-06T00:23:26.260Z,79.07
2019-02-06T00:24:26.980Z,79.06
2019-02-06T00:25:27.530Z,78.95
2019-02-06T00:26:26.058Z,78.91
2019-02-06T00:27:25.978Z,79.39
2019-02-06T00:28:25.738Z,79
2019-02-06T00:29:25.870Z,79.15
2019-02-06T00:30:25.699Z,79.02
2019-02-06T00:31:25.701Z,79.25
2019-02-06T00:32:26.011Z,78.89
2019-02-06T00:33:26.014Z,79.08
2019-02-06T00:34:25.784Z,79.15
2019-02-06T00:35:26.269Z,78.95
2019-02-06T00:36:25.827Z,78.93
2019-02-06T00:37:25.675Z,78.83
2019-02-06T00:38:25.957Z,79.02
2019-02-06T00:39:26.707Z,79
2019-02-06T00:40:25.962Z,79.11
2019-02-06T00:41:25.966Z,79.09
2019-02-06T00:42:26.778Z,79.18
2019-02-06T00:43:25.792Z,79.14
2019-02-06T00:44:25.778Z,78.95
2019-02-06T00:45:25.634Z,79.02
2019-02-06T00:46:26.024Z,79.18
2019-02-06T00:47:25.679Z,78.94
2019-02-06T00:48:25.650Z,79.03
2019-02-06T00:49:25.658Z,79.13
2019-02-06T00:50:25.678Z,78.91
2019-02-06T00:51:25.909Z,78.96
2019-02-06T00:52:25.698Z,79.03
2019-02-06T00:53:25.855Z,79.19
2019-02-06T00:54:25.945Z,78.89
2019-02-06T00:55:25.611Z,79.18
2019-02-06T00:56:25.628Z,79.07
2019-02-06T00:57:25.810Z,79.15
2019-02-06T00:58:25.972Z,79.2
2019-02-06T00:59:25.970Z,79.23
2019-02-06T01:00:25.617Z,79.53
2019-02-06T01:01:25.600Z,79.17
2019-02-06T01:02:26.206Z,79.4
2019-02-06T01:03:25.703Z,79.39
2019-02-06T01:04:25.748Z,79.62
2019-02-06T01:05:37.382Z,79.56
2019-02-06T01:06:25.597Z,79.57
2019-02-06T01:07:26.133Z,79.65
2019-02-06T01:08:25.937Z,79.44
2019-02-06T01:09:25.587Z,79.68
2019-02-06T01:10:25.599Z,79.63
2019-02-06T01:11:25.703Z,79.61
2019-02-06T01:12:26.274Z,79.4
2019-02-06T01:13:25.591Z,79.55
2019-02-06T01:14:25.710Z,79.79
2019-02-06T01:15:25.782Z,79.86
2019-02-06T01:16:25.685Z,79.87
2019-02-06T01:17:26.107Z,79.82
2019-02-06T01:18:26.730Z,80.03
2019-02-06T01:19:26.315Z,79.85
2019-02-06T01:20:25.638Z,79.96
2019-02-06T01:21:25.701Z,79.99
2019-02-06T01:22:25.929Z,80.39
2019-02-06T01:23:26.341Z,80.34
2019-02-06T01:24:25.580Z,80.49
2019-02-06T01:25:26.052Z,80.48
2019-02-06T01:26:25.679Z,80.37
2019-02-06T01:27:25.594Z,80.25
2019-02-06T01:28:26.069Z,80.56
2019-02-06T01:29:26.076Z,80.42
2019-02-06T01:30:26.087Z,80.63
2019-02-06T01:31:25.721Z,80.62
2019-02-06T01:32:25.559Z,80.69
2019-02-06T01:33:25.574Z,81.01
2019-02-06T01:34:25.915Z,80.84
2019-02-06T01:35:25.722Z,80.89
2019-02-06T01:36:26.020Z,80.75
2019-02-06T01:37:25.705Z,81.08
2019-02-06T01:38:25.568Z,81.32
2019-02-06T01:39:25.937Z,80.99
2019-02-06T01:40:25.571Z,81.33
2019-02-06T01:41:25.658Z,81.07
2019-02-06T01:42:25.549Z,81.4
2019-02-06T01:43:25.961Z,81.32
2019-02-06T01:44:25.968Z,81.13
2019-02-06T01:45:25.885Z,81.42
2019-02-06T01:46:25.708Z,81.69
2019-02-06T01:47:25.735Z,81.45
2019-02-06T01:48:25.893Z,81.79
2019-02-06T01:49:25.739Z,81.67
2019-02-06T01:50:26.059Z,81.55
2019-02-06T01:51:25.822Z,81.83
2019-02-06T01:52:25.537Z,81.92
2019-02-06T01:53:25.796Z,82.05
2019-02-06T01:54:25.714Z,81.81
2019-02-06T01:55:25.948Z,82.16
2019-02-06T01:56:25.534Z,82.08
2019-02-06T01:57:25.848Z,82.09
2019-02-06T01:58:26.180Z,81.91
2019-02-06T01:59:25.564Z,82.13
2019-02-06T02:00:25.715Z,82.11
2019-02-06T02:01:25.620Z,82.09
2019-02-06T02:02:25.575Z,82.27
2019-02-06T02:03:25.514Z,81.82
2019-02-06T02:04:25.790Z,82.16
2019-02-06T02:05:25.627Z,82.35
2019-02-06T02:06:25.506Z,82.34
2019-02-06T02:07:26.324Z,82.29
2019-02-06T02:08:25.746Z,82.3
2019-02-06T02:09:25.542Z,82.35
2019-02-06T02:10:25.943Z,82.83
2019-02-06T02:11:25.598Z,82.48
2019-02-06T02:12:25.622Z,82.81
2019-02-06T02:13:25.709Z,82.3
2019-02-06T02:14:25.960Z,82.35
2019-02-06T02:15:25.676Z,82.3
2019-02-06T02:16:25.497Z,81.96
2019-02-06T02:17:25.595Z,82.66
2019-02-06T02:18:25.503Z,82.27
2019-02-06T02:19:25.487Z,82.46
2019-02-06T02:20:25.794Z,82.25
2019-02-06T02:21:25.903Z,82.41
2019-02-06T02:22:25.588Z,81.97
2019-02-06T02:23:25.509Z,81.86
2019-02-06T02:24:25.511Z,82.09
2019-02-06T02:25:25.486Z,82.06
2019-02-06T02:26:25.834Z,82.04
2019-02-06T02:27:25.535Z,81.74
2019-02-06T02:28:25.845Z,81.93
2019-02-06T02:29:25.834Z,81.83
2019-02-06T02:30:25.673Z,81.71
2019-02-06T02:31:25.604Z,81.81
2019-02-06T02:32:25.770Z,81.63
2019-02-06T02:33:25.492Z,81.77
2019-02-06T02:34:25.676Z,81.47
2019-02-06T02:35:25.482Z,81.73
2019-02-06T02:36:25.496Z,81.34
2019-02-06T02:37:25.499Z,81.83
2019-02-06T02:38:25.478Z,81.44
2019-02-06T02:39:25.464Z,81.92
2019-02-06T02:40:25.478Z,81.9
2019-02-06T02:41:25.521Z,81.68
2019-02-06T02:42:25.490Z,81.85
2019-02-06T02:43:25.467Z,81.83
2019-02-06T02:44:25.513Z,81.31
2019-02-06T02:45:25.507Z,81.52
2019-02-06T02:46:25.465Z,81.56
2019-02-06T02:47:25.461Z,81.69
2019-02-06T02:48:25.462Z,81.6
2019-02-06T02:49:25.546Z,81.77
2019-02-06T02:50:25.510Z,81.79
2019-02-06T02:51:25.534Z,81.45
2019-02-06T02:52:25.571Z,81.56
2019-02-06T02:53:25.433Z,81.52
2019-02-06T02:54:25.473Z,81.69
2019-02-06T02:55:25.666Z,81.71
2019-02-06T02:56:25.458Z,81.72
2019-02-06T02:57:25.489Z,81.81
2019-02-06T02:58:25.437Z,81.62
2019-02-06T02:59:25.554Z,81.78
2019-02-06T03:00:25.453Z,81.61
2019-02-06T03:01:25.467Z,81.57
2019-02-06T03:02:25.763Z,81.7
2019-02-06T03:03:25.470Z,81.73
2019-02-06T03:04:25.532Z,81.74
2019-02-06T03:05:25.576Z,81.46
2019-02-06T03:06:27.951Z,81.67
2019-02-06T03:07:25.677Z,81.98
2019-02-06T03:08:25.417Z,81.78
2019-02-06T03:09:25.812Z,81.78
2019-02-06T03:10:25.517Z,81.74
2019-02-06T03:11:25.490Z,81.72
2019-02-06T03:12:25.422Z,81.68
2019-02-06T03:13:25.478Z,81.6
2019-02-06T03:14:25.695Z,81.75
2019-02-06T03:15:25.749Z,81.86
2019-02-06T03:16:25.662Z,81.63
2019-02-06T03:17:25.766Z,81.95
2019-02-06T03:18:25.492Z,81.97
2019-02-06T03:19:25.421Z,81.85
2019-02-06T03:20:25.478Z,82.01
2019-02-06T03:21:25.532Z,81.82
2019-02-06T03:22:25.698Z,81.92
2019-02-06T03:23:25.414Z,82.08
2019-02-06T03:24:25.412Z,82.07
2019-02-06T03:25:25.500Z,82.39
2019-02-06T03:26:25.389Z,82.15
2019-02-06T03:27:25.432Z,82.07
2019-02-06T03:28:25.440Z,82.19
2019-02-06T03:29:25.644Z,82.2
2019-02-06T03:30:26.153Z,82.25
2019-02-06T03:31:25.516Z,82.41
2019-02-06T03:32:25.759Z,82.57
2019-02-06T03:33:25.400Z,82.42
2019-02-06T03:34:25.387Z,82.57
2019-02-06T03:35:26.188Z,82.21
2019-02-06T03:36:25.391Z,82.74
2019-02-06T03:37:25.448Z,82.5
2019-02-06T03:38:26.014Z,82.59
2019-02-06T03:39:25.421Z,82.64
2019-02-06T03:40:25.390Z,82.97
2019-02-06T03:41:25.516Z,82.62
2019-02-06T03:42:25.636Z,82.98
2019-02-06T03:43:25.653Z,83.32
2019-02-06T03:44:25.740Z,83.31
2019-02-06T03:45:25.488Z,83.45
2019-02-06T03:46:25.437Z,83.45
2019-02-06T03:47:25.660Z,83.88
2019-02-06T03:48:25.437Z,83.76
2019-02-06T03:49:25.409Z,83.79
2019-02-06T03:50:25.403Z,83.91
2019-02-06T03:51:25.560Z,84.02
2019-02-06T03:52:25.490Z,83.96
2019-02-06T03:53:25.355Z,83.75
2019-02-06T03:54:25.697Z,84.41
2019-02-06T03:55:25.601Z,84.54
2019-02-06T03:56:25.347Z,84.31
2019-02-06T03:57:25.390Z,84.55
2019-02-06T03:58:25.528Z,84.16
2019-02-06T03:59:25.836Z,84.51
2019-02-06T04:00:25.626Z,83.84
2019-02-06T04:01:25.334Z,84.03
2019-02-06T04:02:25.447Z,83.69
2019-02-06T04:03:25.360Z,83.84
2019-02-06T04:04:25.506Z,84.25
2019-02-06T04:05:25.718Z,83.91
2019-02-06T04:06:25.436Z,83.86
2019-02-06T04:07:25.557Z,84.09
2019-02-06T04:08:25.799Z,84.3
2019-02-06T04:09:25.414Z,84.03
2019-02-06T04:10:25.596Z,83.94
2019-02-06T04:11:25.525Z,83.69
2019-02-06T04:12:25.416Z,83.84
2019-02-06T04:13:25.464Z,83.96
2019-02-06T04:14:25.423Z,83.96
2019-02-06T04:15:25.348Z,84.07
2019-02-06T04:16:25.409Z,84.09
2019-02-06T04:17:25.446Z,83.91
2019-02-06T04:18:25.403Z,84.71
2019-02-06T04:19:25.317Z,84.61
2019-02-06T04:20:25.438Z,84.42
2019-02-06T04:21:25.565Z,84.46
2019-02-06T04:22:25.342Z,84.38
2019-02-06T04:23:25.327Z,84.31
2019-02-06T04:24:25.312Z,84.13
2019-02-06T04:25:25.800Z,84.49
2019-02-06T04:26:25.415Z,83.95
2019-02-06T04:27:25.341Z,84.37
2019-02-06T04:28:25.458Z,83.83
2019-02-06T04:29:25.279Z,84.14
2019-02-06T04:30:25.400Z,83.84
2019-02-06T04:31:25.335Z,84.48
2019-02-06T04:32:25.377Z,84.14
2019-02-06T04:33:25.656Z,84.13
2019-02-06T04:34:25.344Z,83.87
2019-02-06T04:35:25.345Z,83.73
2019-02-06T04:36:25.289Z,83.75
2019-02-06T04:37:25.383Z,83.85
2019-02-06T04:38:25.312Z,83.69
2019-02-06T04:39:25.436Z,83.64
2019-02-06T04:40:25.272Z,83.85
2019-02-06T04:41:25.267Z,83.8
2019-02-06T04:42:25.463Z,83.65
2019-02-06T04:43:25.291Z,83.49
2019-02-06T04:44:25.471Z,83.82
2019-02-06T04:45:25.280Z,83.77
2019-02-06T04:46:25.877Z,83.62
2019-02-06T04:47:25.279Z,83.93
2019-02-06T04:48:25.362Z,83.87
2019-02-06T04:49:25.543Z,84.09
2019-02-06T04:50:25.406Z,84.43
2019-02-06T04:51:25.621Z,84.05
2019-02-06T04:52:25.277Z,83.88
2019-02-06T04:53:25.313Z,84.08
2019-02-06T04:54:25.454Z,84.31
2019-02-06T04:55:25.585Z,84.16
2019-02-06T04:56:26.190Z,84.01
2019-02-06T04:57:25.358Z,84.32
2019-02-06T04:58:25.423Z,84.35
2019-02-06T04:59:25.716Z,84.4
2019-02-06T05:00:25.311Z,84.37
2019-02-06T05:01:26.336Z,84.57
2019-02-06T05:02:25.748Z,84.53
2019-02-06T05:03:25.913Z,84.53
2019-02-06T05:04:25.295Z,84.51
2019-02-06T05:05:25.426Z,84.48
2019-02-06T05:06:25.266Z,84.44
2019-02-06T05:07:25.563Z,85.2
2019-02-06T05:08:25.414Z,85.42
2019-02-06T05:09:25.579Z,85.24
2019-02-06T05:10:25.237Z,84.94
2019-02-06T05:11:26.129Z,84.76
2019-02-06T05:12:25.490Z,84.35
2019-02-06T05:13:25.324Z,84.56
2019-02-06T05:14:25.373Z,84.41
2019-02-06T05:15:25.823Z,84.18
2019-02-06T05:16:25.519Z,84.07
2019-02-06T05:17:25.349Z,84.2
2019-02-06T05:18:25.381Z,84.2
2019-02-06T05:19:27.077Z,84.21
2019-02-06T05:20:25.652Z,84.09
2019-02-06T05:21:25.344Z,84.17
2019-02-06T05:22:25.241Z,84.1
2019-02-06T05:23:25.564Z,84.03
2019-02-06T05:24:25.571Z,83.66
2019-02-06T05:25:25.203Z,84.14
2019-02-06T05:26:25.339Z,84.24
2019-02-06T05:27:25.487Z,84.28
2019-02-06T05:28:25.334Z,84.27
2019-02-06T05:29:25.264Z,84.25
2019-02-06T05:30:25.206Z,84.15
2019-02-06T05:31:25.519Z,84.25
2019-02-06T05:32:25.325Z,84.29
2019-02-06T05:33:25.528Z,84.47
2019-02-06T05:34:25.349Z,84.71
2019-02-06T05:35:25.541Z,84.7
2019-02-06T05:36:25.551Z,84.48
2019-02-06T05:37:31.868Z,84.36
2019-02-06T05:38:25.408Z,84.44
2019-02-06T05:39:25.469Z,84.2
2019-02-06T05:40:25.577Z,84.3
2019-02-06T05:41:25.236Z,84.45
2019-02-06T05:42:25.479Z,84.41
2019-02-06T05:43:25.419Z,84.42
2019-02-06T05:44:25.300Z,84.3
2019-02-06T05:45:25.209Z,84.34
2019-02-06T05:46:25.410Z,84.14
2019-02-06T05:47:25.252Z,84.17
2019-02-06T05:48:25.237Z,84.03
2019-02-06T05:49:25.215Z,84.29
2019-02-06T05:50:25.383Z,84.12
2019-02-06T05:51:25.180Z,84.72
2019-02-06T05:52:25.240Z,84.36
2019-02-06T05:53:25.176Z,84.31
2019-02-06T05:54:25.184Z,84.43
2019-02-06T05:55:25.312Z,84.18
2019-02-06T05:56:25.436Z,84.21
2019-02-06T05:57:25.485Z,84.4
2019-02-06T05:58:25.209Z,84.27
2019-02-06T05:59:25.175Z,84.47
2019-02-06T06:00:25.146Z,84.21
2019-02-06T06:01:25.157Z,84.11
2019-02-06T06:02:25.415Z,84.1
2019-02-06T06:03:25.149Z,84.16
2019-02-06T06:04:25.158Z,84.35
2019-02-06T06:05:25.345Z,84.37
2019-02-06T06:06:25.152Z,84.07
2019-02-06T06:07:25.142Z,84.12
2019-02-06T06:08:25.148Z,84.15
2019-02-06T06:09:25.167Z,84.19
2019-02-06T06:10:25.175Z,84.46
2019-02-06T06:11:25.174Z,84.32
2019-02-06T06:12:25.152Z,84.44
2019-02-06T06:13:25.143Z,84.69
2019-02-06T06:14:25.329Z,84.59
2019-02-06T06:15:25.157Z,84.68
2019-02-06T06:16:25.179Z,85.25
2019-02-06T06:17:25.183Z,85.16
2019-02-06T06:18:25.134Z,84.69
2019-02-06T06:19:25.486Z,84.3
2019-02-06T06:20:25.434Z,84.39
2019-02-06T06:21:25.162Z,84.32
2019-02-06T06:22:25.114Z,84.22
2019-02-06T06:23:25.857Z,84.37
2019-02-06T06:24:25.570Z,84.53
2019-02-06T06:25:25.467Z,84.65
2019-02-06T06:26:25.263Z,84.59
2019-02-06T06:27:25.161Z,84.63
2019-02-06T06:28:25.380Z,85.07
2019-02-06T06:29:25.212Z,84.83
2019-02-06T06:30:25.139Z,84.92
2019-02-06T06:31:25.111Z,84.89
2019-02-06T06:32:25.263Z,85.02
2019-02-06T06:33:25.411Z,84.7
2019-02-06T06:34:25.432Z,84.57
2019-02-06T06:35:25.429Z,84.83
2019-02-06T06:36:25.115Z,84.77
2019-02-06T06:37:25.114Z,84.79
2019-02-06T06:38:25.269Z,84.61
2019-02-06T06:39:25.242Z,84.99
2019-02-06T06:40:25.322Z,84.53
2019-02-06T06:41:25.678Z,84.41
2019-02-06T06:42:25.104Z,84.46
2019-02-06T06:43:25.286Z,84.46
2019-02-06T06:44:25.121Z,84.82
2019-02-06T06:45:25.093Z,84.44
2019-02-06T06:46:26.951Z,85.01
2019-02-06T06:47:25.161Z,84.69
2019-02-06T06:48:25.224Z,84.79
2019-02-06T06:49:25.122Z,84.38
2019-02-06T06:50:25.431Z,84.37
2019-02-06T06:51:25.432Z,83.87
2019-02-06T06:52:26.942Z,84.04
2019-02-06T06:53:25.184Z,84.3
2019-02-06T06:54:25.550Z,84.14
2019-02-06T06:55:25.558Z,83.97
2019-02-06T06:56:25.092Z,83.77
2019-02-06T06:57:25.065Z,84.03
2019-02-06T06:58:25.368Z,83.78
2019-02-06T06:59:25.068Z,83.71
2019-02-06T07:00:25.696Z,84.24
2019-02-06T07:01:25.151Z,83.9
2019-02-06T07:02:25.294Z,84.15
2019-02-06T07:03:25.611Z,84.1
2019-02-06T07:04:25.457Z,84.08
2019-02-06T07:05:25.313Z,84
2019-02-06T07:06:25.130Z,83.83
2019-02-06T07:07:25.532Z,83.81
2019-02-06T07:08:25.119Z,84.08
2019-02-06T07:09:25.100Z,83.71
2019-02-06T07:10:25.254Z,83.78
2019-02-06T07:11:25.301Z,84.03
2019-02-06T07:12:25.516Z,84.12
2019-02-06T07:13:25.473Z,83.78
2019-02-06T07:14:25.095Z,83.54
2019-02-06T07:15:25.482Z,83.53
2019-02-06T07:16:25.385Z,83.43
2019-02-06T07:17:26.920Z,83.37
2019-02-06T07:18:25.296Z,83.53
2019-02-06T07:19:25.234Z,83.72
2019-02-06T07:20:25.034Z,83.67
2019-02-06T07:21:25.048Z,83.7
2019-02-06T07:22:25.088Z,83.7
2019-02-06T07:23:26.559Z,83.49
2019-02-06T07:24:25.032Z,83.66
2019-02-06T07:25:25.036Z,83.72
2019-02-06T07:26:25.348Z,83.8
2019-02-06T07:27:25.030Z,83.8
2019-02-06T07:28:25.035Z,84.01
2019-02-06T07:29:25.031Z,84.17
2019-02-06T07:30:25.008Z,84.09
2019-02-06T07:31:25.023Z,83.95
2019-02-06T07:32:25.157Z,84.06
2019-02-06T07:33:26.885Z,84.29
2019-02-06T07:34:25.338Z,84.14
2019-02-06T07:35:25.013Z,83.97
2019-02-06T07:36:25.830Z,83.92
2019-02-06T07:37:25.062Z,84.03
2019-02-06T07:38:25.354Z,84.23
2019-02-06T07:39:25.059Z,84.06
2019-02-06T07:40:25.343Z,83.96
2019-02-06T07:41:25.247Z,83.88
2019-02-06T07:42:25.074Z,83.96
2019-02-06T07:43:25.151Z,83.82
2019-02-06T07:44:25.000Z,83.75
2019-02-06T07:45:24.991Z,83.95
2019-02-06T07:46:25.127Z,83.79
2019-02-06T07:47:24.999Z,83.71
2019-02-06T07:48:25.026Z,83.5
2019-02-06T07:49:24.988Z,83.66
2019-02-06T07:50:24.976Z,83.66
2019-02-06T07:51:25.411Z,83.48
2019-02-06T07:52:25.018Z,83.55
2019-02-06T07:53:24.984Z,83.59
2019-02-06T07:54:25.033Z,83.79
2019-02-06T07:55:25.160Z,83.47
2019-02-06T07:56:24.980Z,83.31
2019-02-06T07:57:24.980Z,83.5
2019-02-06T07:58:24.987Z,83.71
2019-02-06T07:59:24.993Z,83.77
2019-02-06T08:00:25.015Z,83.31
2019-02-06T08:01:24.973Z,83.43
2019-02-06T08:02:25.284Z,83.41
2019-02-06T08:03:24.979Z,83.44
2019-02-06T08:04:25.578Z,83.32
2019-02-06T08:05:24.982Z,83.2
2019-02-06T08:06:26.635Z,83.5
2019-02-06T08:07:25.008Z,83.37
2019-02-06T08:08:35.556Z,83.22
2019-02-06T08:09:24.951Z,83.52
2019-02-06T08:10:25.057Z,83.3
2019-02-06T08:11:24.960Z,83.42
2019-02-06T08:12:25.003Z,83.26
2019-02-06T08:13:25.191Z,83.4
2019-02-06T08:14:26.822Z,83.48
2019-02-06T08:15:24.982Z,83.5
2019-02-06T08:16:25.367Z,83.46
2019-02-06T08:17:25.477Z,83.52
2019-02-06T08:18:25.484Z,83.53
2019-02-06T08:19:25.204Z,83.54
2019-02-06T08:20:26.808Z,83.53
2019-02-06T08:21:25.055Z,83.47
2019-02-06T08:22:25.270Z,83.43
2019-02-06T08:23:25.019Z,83.39
2019-02-06T08:24:25.423Z,83.33
2019-02-06T08:25:25.187Z,83.38
2019-02-06T08:26:25.234Z,83.38
2019-02-06T08:27:26.346Z,83.34
2019-02-06T08:28:25.448Z,83.43
2019-02-06T08:29:25.575Z,83.36
2019-02-06T08:30:25.359Z,83.34
2019-02-06T08:31:25.001Z,83.23
2019-02-06T08:32:25.125Z,83.04
2019-02-06T08:33:25.242Z,82.87
2019-02-06T08:34:26.788Z,82.78
2019-02-06T08:35:25.051Z,82.91
2019-02-06T08:36:25.171Z,82.99
2019-02-06T08:37:24.936Z,82.98
2019-02-06T08:38:25.001Z,83.04
2019-02-06T08:39:26.137Z,83.02
2019-02-06T08:40:25.391Z,82.87
2019-02-06T08:41:24.919Z,82.77
2019-02-06T08:42:25.440Z,82.77
2019-02-06T08:43:25.104Z,82.69
2019-02-06T08:44:25.250Z,82.46
2019-02-06T08:45:24.941Z,82.36
2019-02-06T08:46:25.160Z,82.33
2019-02-06T08:47:25.575Z,82.21
2019-02-06T08:48:24.910Z,81.91
2019-02-06T08:49:25.010Z,81.68
2019-02-06T08:50:24.963Z,81.51
2019-02-06T08:51:24.905Z,81.49
2019-02-06T08:52:24.905Z,81.28
2019-02-06T08:53:24.902Z,81.22
2019-02-06T08:54:25.151Z,81.27
2019-02-06T08:55:25.217Z,81.32
2019-02-06T08:56:25.223Z,81.22
2019-02-06T08:57:25.237Z,80.98
2019-02-06T08:58:25.032Z,80.95
2019-02-06T08:59:25.240Z,80.79
2019-02-06T09:00:25.357Z,80.98
2019-02-06T09:01:25.126Z,81.28
2019-02-06T09:02:25.374Z,80.97
2019-02-06T09:03:25.069Z,80.78
2019-02-06T09:04:24.949Z,80.87
2019-02-06T09:05:25.148Z,80.72
2019-02-06T09:06:25.083Z,80.73
2019-02-06T09:07:25.035Z,80.42
2019-02-06T09:08:24.911Z,80.36
2019-02-06T09:09:25.410Z,80.22
2019-02-06T09:10:24.902Z,80.26
2019-02-06T09:11:25.145Z,80.39
2019-02-06T09:12:24.886Z,80.43
2019-02-06T09:13:25.006Z,79.94
2019-02-06T09:14:25.002Z,79.86
2019-02-06T09:15:27.208Z,79.72
2019-02-06T09:16:25.149Z,79.59
2019-02-06T09:17:24.903Z,79.78
2019-02-06T09:18:25.168Z,79.65
2019-02-06T09:19:25.275Z,79.79
2019-02-06T09:20:25.003Z,79.5
2019-02-06T09:21:25.185Z,79.59
2019-02-06T09:22:26.721Z,79.36
2019-02-06T09:23:24.856Z,79.16
2019-02-06T09:24:25.098Z,79.32
2019-02-06T09:25:25.122Z,79.5
2019-02-06T09:26:25.111Z,79.44
2019-02-06T09:27:24.958Z,79.15
2019-02-06T09:28:24.934Z,79.19
2019-02-06T09:29:24.915Z,78.99
2019-02-06T09:30:24.914Z,79.06
2019-02-06T09:31:24.893Z,79.07
2019-02-06T09:32:25.007Z,79.13
2019-02-06T09:33:24.901Z,79
2019-02-06T09:34:24.949Z,78.63
2019-02-06T09:35:24.938Z,78.79
2019-02-06T09:36:24.930Z,78.98
2019-02-06T09:37:24.906Z,78.85
2019-02-06T09:38:25.000Z,79.02
2019-02-06T09:39:24.871Z,78.77
2019-02-06T09:40:24.922Z,78.98
2019-02-06T09:41:24.864Z,78.89
2019-02-06T09:42:24.947Z,78.65
2019-02-06T09:43:27.417Z,78.31
2019-02-06T09:44:24.830Z,78.66
2019-02-06T09:45:24.926Z,78.66
2019-02-06T09:46:24.883Z,78.14
2019-02-06T09:47:24.885Z,78.34
2019-02-06T09:48:24.810Z,78.39
2019-02-06T09:49:25.051Z,78.22
2019-02-06T09:50:24.945Z,77.8
2019-02-06T09:51:25.180Z,77.97
2019-02-06T09:52:28.554Z,77.92
2019-02-06T09:53:24.855Z,78.15
2019-02-06T09:54:25.638Z,77.93
2019-02-06T09:55:24.942Z,78.03
2019-02-06T09:56:24.898Z,78.09
2019-02-06T09:57:24.958Z,77.75
2019-02-06T09:58:25.068Z,77.92
2019-02-06T09:59:25.247Z,77.81
2019-02-06T10:00:25.239Z,77.54
2019-02-06T10:01:25.691Z,77.68
2019-02-06T10:02:25.970Z,77.84
2019-02-06T10:03:25.046Z,77.79
2019-02-06T10:04:25.020Z,77.62
2019-02-06T10:05:24.821Z,77.77
2019-02-06T10:06:24.815Z,77.76
2019-02-06T10:07:24.811Z,77.69
2019-02-06T10:08:25.080Z,77.21
2019-02-06T10:09:25.920Z,77.41
2019-02-06T10:10:24.871Z,77.52
2019-02-06T10:11:25.002Z,77.88
2019-02-06T10:12:24.787Z,77.41
2019-02-06T10:13:24.965Z,77.78
2019-02-06T10:14:25.018Z,77.61
2019-02-06T10:15:24.901Z,77.76
2019-02-06T10:16:24.776Z,77.77
2019-02-06T10:17:24.768Z,77.44
2019-02-06T10:18:26.534Z,77.42
2019-02-06T10:19:25.092Z,77.42
2019-02-06T10:20:24.896Z,77.23
2019-02-06T10:21:24.955Z,76.7
2019-02-06T10:22:24.947Z,77.24
2019-02-06T10:23:24.754Z,77.27
2019-02-06T10:24:25.056Z,76.83
2019-02-06T10:25:25.089Z,76.68
2019-02-06T10:26:25.026Z,76.81
2019-02-06T10:27:24.990Z,77.05
2019-02-06T10:28:26.034Z,77.25
2019-02-06T10:29:24.759Z,77.24
2019-02-06T10:30:25.021Z,77.14
2019-02-06T10:31:25.037Z,76.71
2019-02-06T10:32:25.158Z,76.66
2019-02-06T10:33:25.005Z,76.57
2019-02-06T10:34:24.911Z,76.96
2019-02-06T10:35:25.045Z,76.88
2019-02-06T10:36:24.893Z,76.73
2019-02-06T10:37:24.758Z,76.46
2019-02-06T10:38:25.072Z,75.95
2019-02-06T10:39:34.104Z,76.7
2019-02-06T10:40:24.728Z,76.56
2019-02-06T10:41:24.936Z,76.58
2019-02-06T10:42:24.860Z,76.42
2019-02-06T10:43:31.855Z,76.02
2019-02-06T10:44:24.891Z,75.86
2019-02-06T10:45:24.734Z,75.82
2019-02-06T10:46:24.725Z,75.08
2019-02-06T10:47:24.773Z,75.12
2019-02-06T10:48:25.139Z,75.32
2019-02-06T10:49:25.247Z,75.23
2019-02-06T10:50:24.711Z,74.8
2019-02-06T10:51:24.867Z,75.24
2019-02-06T10:52:24.962Z,74.97
2019-02-06T10:53:24.755Z,74.85
2019-02-06T10:54:24.812Z,75.28
2019-02-06T10:55:24.711Z,74.88
2019-02-06T10:56:25.195Z,75.29
2019-02-06T10:57:24.793Z,75.27
2019-02-06T10:58:25.011Z,75.18
2019-02-06T10:59:24.704Z,74.37
2019-02-06T11:00:24.756Z,74.36
2019-02-06T11:01:25.231Z,74.37
2019-02-06T11:02:25.027Z,74.17
2019-02-06T11:03:24.842Z,74.55
2019-02-06T11:04:24.696Z,74.36
2019-02-06T11:05:24.699Z,74.14
2019-02-06T11:06:25.147Z,74.37
2019-02-06T11:07:25.179Z,74.12
2019-02-06T11:08:25.071Z,74.31
2019-02-06T11:09:25.288Z,74.29
2019-02-06T11:10:24.678Z,73.36
2019-02-06T11:11:24.899Z,73.51
2019-02-06T11:12:24.795Z,73.71
2019-02-06T11:13:24.995Z,74.4
2019-02-06T11:14:24.701Z,74.54
2019-02-06T11:15:25.113Z,74.08
2019-02-06T11:16:24.701Z,73.62
2019-02-06T11:17:24.688Z,73.1
2019-02-06T11:18:24.690Z,73.45
2019-02-06T11:19:24.671Z,73.3
2019-02-06T11:20:24.669Z,72.95
2019-02-06T11:21:25.156Z,73.62
2019-02-06T11:22:24.755Z,73.69
2019-02-06T11:23:24.673Z,73.31
2019-02-06T11:24:26.815Z,72.99
2019-02-06T11:25:24.696Z,72.98
2019-02-06T11:26:24.682Z,72.9
2019-02-06T11:27:24.710Z,72.49
2019-02-06T11:28:24.662Z,72.7
2019-02-06T11:29:25.101Z,72.08
2019-02-06T11:30:25.108Z,72.79
2019-02-06T11:31:24.654Z,72.48
2019-02-06T11:32:24.948Z,72.51
2019-02-06T11:33:25.008Z,71.99
2019-02-06T11:34:24.677Z,72.54
2019-02-06T11:35:24.882Z,72.15
2019-02-06T11:36:25.149Z,72.4
2019-02-06T11:37:24.666Z,71.44
2019-02-06T11:38:27.903Z,71.41
2019-02-06T11:39:24.971Z,71.83
2019-02-06T11:40:24.698Z,71.31
2019-02-06T11:41:24.860Z,71.24
2019-02-06T11:42:24.940Z,70.62
2019-02-06T11:43:24.638Z,70.58
2019-02-06T11:44:24.700Z,70.58
2019-02-06T11:45:25.015Z,70.65
2019-02-06T11:46:24.909Z,70.76
2019-02-06T11:47:24.725Z,71.2
2019-02-06T11:48:24.850Z,70.62
2019-02-06T11:49:24.700Z,71.13
2019-02-06T11:50:24.846Z,70.9
2019-02-06T11:51:26.493Z,70.38
2019-02-06T11:52:25.048Z,70.58
2019-02-06T11:53:26.465Z,70.49
2019-02-06T11:54:24.829Z,70.42
2019-02-06T11:55:24.776Z,71.06
2019-02-06T11:56:24.620Z,70.89
2019-02-06T11:57:25.138Z,70.25
2019-02-06T11:58:24.907Z,70.42
2019-02-06T11:59:24.893Z,70.21
2019-02-06T12:00:24.775Z,70.27
2019-02-06T12:01:24.902Z,69.61
2019-02-06T12:02:24.715Z,69.51
2019-02-06T12:03:24.681Z,70.21
2019-02-06T12:04:24.666Z,68.94
2019-02-06T12:05:25.032Z,69.53
2019-02-06T12:06:24.694Z,69.01
2019-02-06T12:07:24.616Z,68.72
2019-02-06T12:08:24.663Z,69.74
2019-02-06T12:09:25.072Z,68.96
2019-02-06T12:10:25.173Z,68.93
2019-02-06T12:11:25.075Z,69.35
2019-02-06T12:12:24.649Z,68.54
2019-02-06T12:13:24.880Z,68.05
2019-02-06T12:14:24.988Z,68.02
2019-02-06T12:15:24.898Z,68.24
2019-02-06T12:16:24.641Z,68.52
2019-02-06T12:17:24.687Z,68.39
2019-02-06T12:18:24.607Z,67.9
2019-02-06T12:19:25.603Z,68.11
2019-02-06T12:20:25.134Z,68.27
2019-02-06T12:21:24.587Z,68.75
2019-02-06T12:22:25.046Z,67.83
2019-02-06T12:23:32.042Z,67.55
2019-02-06T12:24:24.720Z,67.46
2019-02-06T12:25:25.060Z,68.13
2019-02-06T12:26:24.689Z,68.25
2019-02-06T12:27:24.976Z,67.19
2019-02-06T12:28:25.079Z,66.8
2019-02-06T12:29:24.989Z,67.22
2019-02-06T12:30:24.776Z,67.72
2019-02-06T12:31:24.611Z,67.05
2019-02-06T12:32:25.128Z,67.03
2019-02-06T12:33:24.721Z,67.87
2019-02-06T12:34:25.018Z,67.59
2019-02-06T12:35:24.588Z,66.78
2019-02-06T12:36:24.576Z,67.08
2019-02-06T12:37:24.579Z,67.03
2019-02-06T12:38:24.637Z,67.56
2019-02-06T12:39:24.557Z,67.72
2019-02-06T12:40:24.955Z,66.95
2019-02-06T12:41:24.705Z,66.76
2019-02-06T12:42:24.618Z,66.77
2019-02-06T12:43:24.617Z,65.49
2019-02-06T12:44:24.880Z,65.92
2019-02-06T12:45:24.609Z,66.93
2019-02-06T12:46:24.893Z,65.99
2019-02-06T12:47:26.747Z,65.71
2019-02-06T12:48:24.730Z,66.94
2019-02-06T12:49:24.565Z,66.64
2019-02-06T12:50:24.593Z,66.12
2019-02-06T12:51:24.600Z,64.67
2019-02-06T12:52:25.036Z,64.62
2019-02-06T12:53:26.388Z,65.02
2019-02-06T12:54:25.035Z,65.97